Latest Weather Observations for Warruwi

IDD60801

Issued at 7:31 pm CST Saturday 4 July 2015 (issued every 30 minutes, with the page automatically refreshed every 10 minutes)

About weather observations | Map of weather stations | Latest weather observations for NT | Other Formats
Station Details ID: 014401 Name: WARRUWI AIRPORT Lat: -11.65 Lon: 133.38 Height: 19.2 m
Data from the previous 72 hours. | See also: Recent months at Warruwi
Date/Time
CST
Temp
°C
App
Temp
°C
Dew
Point
Rel
Hum
%
Delta-T
°C
Wind Press
QNH
hPa
Press
MSL
hPa
Rain
since 9 am
mm
Dir
 
Spd
km/h
Gust
km/h
Spd
kts
Gust
kts
04/07:30pm 24.1 25.3 16.9 64 4.4 ENE 6 7 3 4 1012.7 1012.6 0.0
04/07:00pm 24.6 25.7 16.6 61 4.9 ENE 6 11 3 6 1012.5 1012.4 0.0
04/06:30pm 25.1 25.4 16.0 57 5.6 ENE 9 17 5 9 1012.4 1012.3 0.0
04/06:00pm 25.6 25.0 15.6 54 6.1 ENE 13 20 7 11 1012.0 1011.9 0.0
04/05:30pm 26.5 25.8 15.5 50 6.7 E 13 22 7 12 1011.7 1011.6 0.0
04/05:00pm 27.1 25.5 15.1 47 7.3 E 17 24 9 13 1011.6 1011.5 0.0
04/04:30pm 27.8 27.3 15.8 48 7.4 E 13 24 7 13 1011.6 1011.5 0.0
04/04:00pm 28.3 26.5 13.4 40 8.8 E 15 19 8 10 1011.5 1011.4 0.0
04/03:30pm 28.4 26.7 13.5 40 8.9 E 15 20 8 11 1011.5 1011.4 0.0
04/03:00pm 27.9 26.4 14.2 43 8.2 E 15 20 8 11 1011.6 1011.5 0.0
04/02:30pm 27.8 25.7 14.8 45 7.9 E 19 24 10 13 1012.0 1011.9 0.0
04/02:00pm 28.1 26.2 14.3 42 8.3 E 17 24 9 13 1012.4 1012.3 0.0
04/01:30pm 28.0 24.4 12.0 37 9.3 ESE 22 32 12 17 1012.9 1012.8 0.0
04/01:00pm 28.3 24.9 12.6 38 9.2 ESE 22 33 12 18 1013.5 1013.4 0.0
04/12:30pm 27.7 24.2 12.1 38 9.0 ESE 22 32 12 17 1013.9 1013.8 0.0
04/12:00pm 27.2 23.2 11.7 38 8.9 ESE 24 33 13 18 1014.4 1014.3 0.0
04/11:30am 27.2 23.3 12.0 38 8.8 ESE 24 35 13 19 1014.8 1014.7 0.0
04/11:00am 26.6 23.7 14.0 46 7.5 ESE 22 32 12 17 1015.3 1015.2 0.0
04/10:30am 25.6 23.2 14.4 50 6.7 ESE 20 33 11 18 1015.7 1015.6 0.0
04/10:00am 25.2 23.5 15.8 56 5.7 ESE 19 26 10 14 1015.9 1015.8 0.0
04/09:30am 24.5 23.2 16.7 61 4.8 ESE 19 24 10 13 1016.1 1016.0 0.0
04/09:00am 23.4 21.9 16.7 66 4.1 SE 20 28 11 15 1016.2 1016.1 0.0
04/08:30am 22.8 21.4 16.6 68 3.8 SE 19 26 10 14 1016.1 1016.0 0.0
04/08:00am 22.3 21.4 16.8 71 3.4 SE 17 24 9 13 1015.8 1015.7 0.0
04/07:30am 21.6 20.3 15.9 70 3.4 SE 17 20 9 11 1015.5 1015.4 0.0
04/07:00am 21.4 20.5 16.8 75 2.8 SE 17 24 9 13 1015.1 1015.0 0.0
04/06:30am 21.3 21.1 16.7 75 2.8 SE 13 20 7 11 1015.0 1014.9 0.0
04/06:00am 21.3 20.9 17.1 77 2.6 SE 15 20 8 11 1015.0 1014.9 0.0
04/05:30am 21.5 21.0 17.7 79 2.3 SE 17 24 9 13 1014.9 1014.8 0.0
04/05:00am 21.6 20.6 17.6 78 2.5 SE 19 26 10 14 1014.6 1014.5 0.0
04/04:30am 21.8 21.7 17.8 78 2.5 SE 15 20 8 11 1014.6 1014.5 0.0
04/04:00am 21.6 21.1 17.8 79 2.4 ESE 17 26 9 14 1014.6 1014.5 0.0
04/03:30am 21.9 21.4 17.7 77 2.6 ESE 17 24 9 13 1014.6 1014.5 0.0
04/03:00am 22.2 21.5 17.3 74 3.0 ESE 17 24 9 13 1014.7 1014.6 0.0
04/02:30am 22.4 22.2 17.5 74 3.0 ESE 15 22 8 12 1014.8 1014.7 0.0
04/02:00am 22.6 22.0 17.5 73 3.2 ESE 17 24 9 13 1015.0 1014.9 0.0
04/01:30am 23.0 22.2 17.9 73 3.2 ESE 19 32 10 17 1015.0 1014.9 0.0
04/01:00am 23.3 22.2 17.7 71 3.5 ESE 20 32 11 17 1015.1 1015.0 0.0
04/12:30am 23.7 22.7 17.9 70 3.6 ESE 20 32 11 17 1015.0 1014.9 0.0
04/12:00am 24.3 22.2 18.0 68 4.0 ESE 26 33 14 18 1015.1 1015.0 0.0
 
Date/Time
CST
Temp
°C
App
Temp
°C
Dew
Point
Rel
Hum
%
Delta-T
°C
Wind Press
QNH
hPa
Press
MSL
hPa
Rain
since 9 am
mm
Dir
 
Spd
km/h
Gust
km/h
Spd
kts
Gust
kts
03/11:30pm 24.9 22.3 17.9 65 4.4 ESE 28 35 15 19 1015.0 1014.9 0.0
03/11:00pm 25.0 26.6 21.5 81 2.3 E 15 22 8 12 1014.9 1014.8 0.0
03/10:30pm 25.1 26.9 21.2 79 2.6 E 13 19 7 10 1014.8 1014.7 0.0
03/10:00pm 25.0 27.1 20.9 78 2.7 E 11 17 6 9 1014.7 1014.6 0.0
03/09:30pm 25.1 26.9 20.4 75 3.1 E 11 15 6 8 1014.6 1014.5 0.0
03/09:00pm 25.1 27.2 20.1 74 3.2 E 9 13 5 7 1014.3 1014.2 0.0
03/08:30pm 25.2 27.2 20.0 73 3.4 E 9 13 5 7 1013.9 1013.8 0.0
03/08:00pm 25.1 27.3 19.7 72 3.5 ENE 7 15 4 8 1013.6 1013.5 0.0
03/07:30pm 25.0 27.2 19.6 72 3.5 ENE 7 11 4 6 1013.3 1013.2 0.0
03/07:00pm 25.0 27.3 19.4 71 3.6 ENE 6 9 3 5 1013.1 1013.0 0.0
03/06:30pm 25.4 27.1 18.6 66 4.3 ENE 7 13 4 7 1013.0 1012.9 0.0
03/06:00pm 25.8 26.9 18.0 62 4.9 ENE 9 17 5 9 1012.8 1012.7 0.0
03/05:30pm 26.6 27.3 17.9 59 5.5 ENE 11 20 6 11 1012.6 1012.5 0.0
03/05:00pm 27.0 27.3 17.8 57 5.8 E 13 20 7 11 1012.4 1012.3 0.0
03/04:30pm 27.2 26.9 17.4 55 6.2 ENE 15 24 8 13 1012.4 1012.3 0.0
03/04:00pm 27.4 27.3 17.8 55 6.1 ENE 15 26 8 14 1012.5 1012.4 0.0
03/03:30pm 28.0 27.9 17.8 54 6.5 E 15 24 8 13 1012.7 1012.6 0.0
03/03:00pm 27.9 27.4 17.7 53 6.5 E 17 24 9 13 1012.9 1012.8 0.0
03/02:30pm 27.4 26.8 17.6 55 6.2 E 17 26 9 14 1013.3 1013.2 0.0
03/02:00pm 27.5 27.7 18.5 58 5.8 E 15 22 8 12 1013.9 1013.8 0.0
03/01:30pm 28.0 26.7 17.2 52 6.8 E 20 30 11 16 1014.4 1014.3 0.0
03/01:00pm 27.8 25.8 16.4 50 7.1 E 22 32 12 17 1015.0 1014.9 0.0
03/12:30pm 28.8 27.3 17.7 51 7.0 E 22 33 12 18 1015.3 1015.2 0.0
03/12:00pm 28.3 27.4 18.1 54 6.5 ESE 20 28 11 15 1015.7 1015.6 0.0
03/11:30am 27.8 25.5 16.7 50 6.9 ESE 24 32 13 17 1016.2 1016.1 0.0
03/11:00am 27.1 25.8 18.1 58 5.7 ESE 22 32 12 17 1016.5 1016.4 0.0
03/10:30am 26.3 25.8 19.2 65 4.6 ESE 20 30 11 16 1016.7 1016.6 0.0
03/10:00am 25.5 25.2 19.6 70 3.8 ESE 20 30 11 16 1016.9 1016.8 0.0
03/09:30am 24.6 23.6 19.7 74 3.2 ESE 24 32 13 17 1016.9 1016.8 0.0
03/09:00am 24.3 24.1 19.8 76 2.9 ESE 20 28 11 15 1016.8 1016.7 0.0
03/08:30am 23.7 23.8 20.0 80 2.4 ESE 19 28 10 15 1016.6 1016.5 0.0
03/08:00am 23.0 23.5 20.0 83 1.9 SE 17 22 9 12 1016.3 1016.2 0.0
03/07:30am 22.3 23.2 20.0 87 1.5 SE 15 22 8 12 1016.0 1015.9 0.0
03/07:00am 22.0 22.6 19.5 86 1.6 SE 15 20 8 11 1015.7 1015.6 0.0
03/06:30am 22.1 22.7 19.5 85 1.7 SE 15 20 8 11 1015.4 1015.3 0.0
03/06:00am 22.1 23.1 19.5 85 1.7 SE 13 20 7 11 1015.3 1015.2 0.0
03/05:30am 22.3 23.8 19.7 85 1.7 SE 11 20 6 11 1015.1 1015.0 0.0
03/05:00am 22.3 23.7 19.5 84 1.8 SE 11 19 6 10 1014.9 1014.8 0.0
03/04:30am 22.8 24.2 19.6 82 2.0 SE 11 19 6 10 1014.8 1014.7 0.0
03/04:00am 23.0 24.1 19.6 81 2.2 ESE 13 17 7 9 1014.9 1014.8 0.0
03/03:30am 23.4 23.3 19.5 79 2.5 ESE 19 28 10 15 1015.0 1014.9 0.0
03/03:00am 23.5 23.2 19.2 77 2.7 ESE 19 28 10 15 1015.3 1015.2 0.0
03/02:30am 23.8 23.3 19.1 75 3.0 ESE 20 30 11 16 1015.6 1015.5 0.0
03/02:00am 24.1 22.9 18.5 71 3.5 SE 22 32 12 17 1015.7 1015.6 0.0
03/01:30am 24.4 23.7 18.6 70 3.7 SE 20 32 11 17 1015.9 1015.8 0.0
03/01:00am 24.8 23.6 18.3 67 4.1 SE 22 32 12 17 1016.0 1015.9 0.0
03/12:30am 25.1 24.0 17.8 64 4.6 ESE 20 30 11 16 1016.1 1016.0 0.0
03/12:00am 25.6 24.6 18.0 63 4.8 ESE 20 32 11 17 1016.0 1015.9 0.0
 
Date/Time
CST
Temp
°C
App
Temp
°C
Dew
Point
Rel
Hum
%
Delta-T
°C
Wind Press
QNH
hPa
Press
MSL
hPa
Rain
since 9 am
mm
Dir
 
Spd
km/h
Gust
km/h
Spd
kts
Gust
kts
02/11:30pm 25.8 24.8 18.0 62 4.9 ESE 20 30 11 16 1016.1 1016.0 0.0
02/11:00pm 25.9 25.4 18.6 64 4.6 ESE 19 26 10 14 1016.2 1016.1 0.0
02/10:30pm 25.9 26.4 19.3 67 4.2 ESE 15 20 8 11 1016.3 1016.2 0.0
02/10:00pm 26.2 26.4 19.3 65 4.4 ESE 17 20 9 11 1016.4 1016.3 0.0
02/09:30pm 26.4 26.6 19.3 65 4.6 ESE 17 24 9 13 1016.2 1016.1 0.0
02/09:00pm 25.6 28.9 22.5 83 2.1 E 9 13 5 7 1015.9 1015.8 0.0
02/08:30pm 25.7 29.0 21.8 79 2.6 E 7 15 4 8 1015.7 1015.6 0.0
02/08:00pm 25.7 28.7 22.0 80 2.5 E 9 13 5 7 1015.3 1015.2 0.0
02/07:30pm 25.9 28.4 21.8 78 2.7 E 11 17 6 9 1015.0 1014.9 0.0
02/07:00pm 26.1 28.8 21.3 75 3.2 ENE 9 13 5 7 1014.7 1014.6 0.0
02/06:30pm 26.3 28.7 20.8 71 3.6 ENE 9 15 5 8 1014.4 1014.3 0.0
02/06:00pm 26.5 28.5 20.8 71 3.8 ENE 11 15 6 8 1014.2 1014.1 0.0
02/05:30pm 26.9 28.5 20.7 69 4.1 E 13 20 7 11 1014.0 1013.9 0.0
02/05:00pm 27.2 27.8 20.3 66 4.5 E 17 24 9 13 1013.9 1013.8 0.0
02/04:30pm 27.8 29.0 20.6 65 4.7 E 15 20 8 11 1013.8 1013.7 0.0
02/04:00pm 28.1 28.8 20.4 63 5.1 E 17 22 9 12 1013.9 1013.8 0.0
02/03:30pm 28.1 28.8 20.4 63 5.1 E 17 24 9 13 1014.0 1013.9 0.0
02/03:00pm 29.0 29.7 20.4 59 5.7 E 17 24 9 13 1014.0 1013.9 0.0
02/02:30pm 28.3 28.7 20.6 63 5.1 E 19 26 10 14 1014.3 1014.2 0.0
02/02:00pm 29.6 29.1 18.7 52 7.0 E 19 28 10 15 1014.7 1014.6 0.0
02/01:30pm 29.4 28.4 17.6 49 7.5 ESE 19 28 10 15 1015.2 1015.1 0.0
02/01:00pm 29.8 28.8 17.9 48 7.6 ESE 20 28 11 15 1015.8 1015.7 0.0
02/12:30pm 29.6 28.1 17.8 49 7.5 ESE 22 30 12 16 1016.1 1016.0 0.0
02/12:00pm 28.7 26.9 17.9 52 6.9 ESE 24 33 13 18 1016.6 1016.5 0.0
02/11:30am 28.9 26.8 16.1 46 7.9 ESE 22 30 12 16 1017.1 1017.0 0.0
02/11:00am 28.2 25.8 16.5 49 7.3 ESE 24 33 13 18 1017.3 1017.2 0.0
02/10:30am 27.0 24.4 16.0 51 6.7 ESE 24 32 13 17 1017.7 1017.6 0.0
02/10:00am 26.9 25.4 16.8 54 6.3 ESE 20 28 11 15 1017.9 1017.8 0.0
02/09:30am 25.9 23.6 16.7 57 5.7 ESE 24 33 13 18 1017.7 1017.6 0.0
02/09:00am 25.0 23.1 16.7 60 5.1 ESE 22 30 12 16 1017.7 1017.6 0.0
02/08:30am 24.5 23.0 16.7 61 4.8 ESE 20 32 11 17 1017.3 1017.2 0.0
02/08:00am 24.2 22.9 16.7 63 4.6 SE 19 28 10 15 1017.1 1017.0 0.0
02/07:30am 23.6 23.7 18.3 72 3.3 SE 15 24 8 13 1016.8 1016.7 0.0
02/07:00am 23.2 23.5 18.7 76 2.8 SE 15 24 8 13 1016.4 1016.3 0.0
02/06:30am 23.0 23.3 18.7 77 2.7 SE 15 24 8 13 1016.3 1016.2 0.0
02/06:00am 23.1 23.5 19.1 78 2.5 SE 15 22 8 12 1016.2 1016.1 0.0
02/05:30am 23.2 22.8 18.9 77 2.7 ESE 19 30 10 16 1016.0 1015.9 0.0
02/05:00am 23.3 23.3 19.0 77 2.7 SE 17 22 9 12 1015.9 1015.8 0.0
02/04:30am 23.7 23.3 19.0 75 3.0 SE 19 26 10 14 1015.8 1015.7 0.0
02/04:00am 23.6 23.6 19.7 79 2.5 SE 19 28 10 15 1015.9 1015.8 0.0
02/03:30am 23.6 23.5 19.9 80 2.4 SE 20 32 11 17 1015.9 1015.8 0.0
02/03:00am 23.7 23.9 20.2 81 2.3 SE 19 32 10 17 1016.0 1015.9 0.0
02/02:30am 23.7 24.4 20.4 82 2.1 SE 17 28 9 15 1016.2 1016.1 0.0
02/02:00am 23.6 23.9 20.5 83 2.0 SE 19 28 10 15 1016.6 1016.5 0.0
02/01:30am 23.6 24.3 20.5 83 2.0 ESE 17 28 9 15 1016.8 1016.7 0.0
02/01:00am 23.6 24.3 20.5 83 2.0 SE 17 24 9 13 1017.0 1016.9 0.0
02/12:30am 23.5 24.6 20.4 83 2.0 SE 15 24 8 13 1017.1 1017.0 0.0
02/12:00am 23.6 23.9 20.5 83 2.0 SE 19 30 10 16 1017.3 1017.2 0.0
 
Date/Time
CST
Temp
°C
App
Temp
°C
Dew
Point
Rel
Hum
%
Delta-T
°C
Wind Press
QNH
hPa
Press
MSL
hPa
Rain
since 9 am
mm
Dir
 
Spd
km/h
Gust
km/h
Spd
kts
Gust
kts
01/11:30pm 23.7 23.6 20.0 80 2.4 SE 20 32 11 17 1017.5 1017.4 0.0
01/11:00pm 23.7 23.7 20.2 81 2.3 ESE 20 33 11 18 1017.6 1017.5 0.0
01/10:30pm 23.5 23.2 20.4 83 2.0 SE 22 32 12 17 1017.7 1017.6 0.0
01/10:00pm 23.7 23.4 20.4 82 2.1 SE 22 35 12 19 1017.6 1017.5 0.0
01/09:30pm 23.6 23.4 20.5 83 2.0 SE 22 33 12 18 1017.6 1017.5 0.0
01/09:00pm 23.8 24.3 20.9 84 1.9 SE 19 28 10 15 1017.3 1017.2 0.0
01/08:30pm 23.7 24.6 20.8 84 1.9 SSE 17 24 9 13 1016.8 1016.7 0.0
01/08:00pm 23.9 24.1 20.6 82 2.2 SE 20 33 11 18 1016.5 1016.4 0.0

Other Formats:

Comma delimited format used in spreadsheet applications
http://www.bom.gov.au/fwo/IDD60801/IDD60801.94139.axf

JavaScript Object Notation format (JSON) in row-major order
http://www.bom.gov.au/fwo/IDD60801/IDD60801.94139.json